Time;durP1;ratioP1;P1;durP2;ratioP2;P2;SDS_P1;SDS_P2;PMS_P1;PMS_P2;Temp;Humidity;BMP_temperature;BMP_pressure;BME280_temperature;BME280_humidity;BME280_pressure;Samples;Min_cycle;Max_cycle;Signal;HPM_P1;HPM_P2
2023/02/03 00:01:42;;;;;;;3.25;1.73;;;4.70;99.90;;;;;;5025455;28;20044;-34
2023/02/03 00:04:07;;;;;;;1.90;1.80;;;4.80;99.90;;;;;;5028227;28;20021;-34
2023/02/03 00:06:33;;;;;;;2.28;1.73;;;4.70;99.90;;;;;;5026610;28;20598;-30
2023/02/03 00:09:00;;;;;;;2.45;1.95;;;4.80;99.90;;;;;;5022659;28;20476;-35
2023/02/03 00:11:28;;;;;;;2.78;1.10;;;4.80;99.90;;;;;;5023121;28;20117;-35
2023/02/03 00:13:53;;;;;;;4.20;1.38;;;4.80;99.90;;;;;;5024113;28;20071;-35
2023/02/03 00:16:19;;;;;;;2.50;2.00;;;4.70;99.90;;;;;;5023960;28;20490;-35
2023/02/03 00:18:44;;;;;;;3.25;1.50;;;4.80;99.90;;;;;;5021490;28;20443;-35
2023/02/03 00:21:10;;;;;;;1.70;1.60;;;4.80;99.90;;;;;;5023672;28;20029;-30
2023/02/03 00:23:36;;;;;;;1.60;1.50;;;4.80;99.90;;;;;;5027728;28;20031;-34
2023/02/03 00:26:08;;;;;;;2.28;1.38;;;4.80;99.90;;;;;;5021741;28;20044;-33
2023/02/03 00:28:34;;;;;;;0.95;0.95;;;4.80;99.90;;;;;;5021017;28;20033;-34
2023/02/03 00:30:59;;;;;;;1.75;1.65;;;4.80;99.90;;;;;;5024206;28;20042;-35
2023/02/03 00:33:25;;;;;;;2.20;1.40;;;4.80;99.90;;;;;;5024557;28;20025;-35
2023/02/03 00:35:51;;;;;;;1.20;1.10;;;4.80;99.90;;;;;;5020212;28;20037;-34
2023/02/03 00:38:16;;;;;;;1.08;1.08;;;4.80;99.90;;;;;;5019383;28;20633;-33
2023/02/03 00:40:42;;;;;;;1.58;1.48;;;4.90;99.90;;;;;;5022309;28;20505;-35
2023/02/03 00:43:07;;;;;;;4.22;1.45;;;4.90;99.90;;;;;;5028605;28;20033;-34
2023/02/03 00:45:33;;;;;;;2.58;1.90;;;4.80;99.90;;;;;;5018794;28;20482;-32
2023/02/03 00:47:58;;;;;;;2.65;1.77;;;4.90;99.90;;;;;;5029770;28;20510;-31
2023/02/03 00:50:24;;;;;;;1.73;1.35;;;4.80;99.90;;;;;;5019613;28;20534;-34
2023/02/03 00:52:49;;;;;;;2.30;1.23;;;4.90;99.90;;;;;;5027646;28;20016;-34
2023/02/03 00:55:15;;;;;;;4.07;1.83;;;4.80;99.90;;;;;;5020436;28;20125;-34
2023/02/03 00:57:41;;;;;;;1.73;1.60;;;4.80;99.90;;;;;;5026091;28;20068;-34
2023/02/03 01:00:07;;;;;;;1.98;1.63;;;4.80;99.90;;;;;;5020925;28;20036;-34
2023/02/03 01:02:33;;;;;;;2.55;1.60;;;4.90;99.90;;;;;;5029570;28;20041;-32
2023/02/03 01:04:58;;;;;;;1.08;1.00;;;4.90;99.90;;;;;;5023490;28;20486;-30
2023/02/03 01:07:24;;;;;;;3.55;1.42;;;4.90;99.90;;;;;;5022309;28;20072;-35
2023/02/03 01:09:49;;;;;;;1.50;1.40;;;4.90;99.90;;;;;;5026144;28;20036;-35
2023/02/03 01:12:15;;;;;;;1.15;1.10;;;4.90;99.90;;;;;;5021247;28;20068;-34
2023/02/03 01:14:40;;;;;;;2.60;1.50;;;4.90;99.90;;;;;;5026473;28;20071;-34
2023/02/03 01:17:06;;;;;;;1.95;1.85;;;5.00;99.90;;;;;;5024191;28;20496;-34
2023/02/03 01:19:32;;;;;;;3.45;1.85;;;5.00;99.90;;;;;;5024495;28;20748;-34
2023/02/03 01:21:57;;;;;;;1.88;1.40;;;5.00;99.90;;;;;;5027618;28;20371;-35
2023/02/03 01:24:23;;;;;;;1.58;1.35;;;5.00;99.90;;;;;;5009666;28;20124;-30
2023/02/03 01:26:48;;;;;;;2.17;1.33;;;4.90;99.90;;;;;;5001650;28;20033;-34
2023/02/03 01:29:14;;;;;;;2.42;1.50;;;4.90;99.90;;;;;;5020939;28;20029;-29
2023/02/03 01:31:41;;;;;;;1.17;1.17;;;4.90;99.90;;;;;;5023078;28;20056;-34
2023/02/03 01:34:12;;;;;;;1.40;1.30;;;4.90;99.90;;;;;;5019019;28;20065;-34
2023/02/03 01:36:37;;;;;;;2.58;1.48;;;4.90;99.90;;;;;;5027863;28;20103;-35
2023/02/03 01:39:04;;;;;;;6.32;1.92;;;4.80;99.90;;;;;;5028427;28;20509;-31
2023/02/03 01:41:32;;;;;;;1.80;1.30;;;4.80;99.90;;;;;;5023633;28;20033;-34
2023/02/03 01:43:59;;;;;;;2.45;1.50;;;4.80;99.90;;;;;;5023003;28;20052;-34
2023/02/03 01:46:36;;;;;;;1.92;1.40;;;4.80;99.90;;;;;;5027778;28;20076;-34
2023/02/03 01:49:37;;;;;;;1.05;1.05;;;4.80;99.90;;;;;;5022883;28;20026;-33
2023/02/03 01:52:03;;;;;;;2.22;1.02;;;4.80;99.90;;;;;;5026747;28;20095;-34
2023/02/03 01:54:34;;;;;;;3.35;1.52;;;4.80;99.90;;;;;;5023072;28;20514;-31
2023/02/03 01:57:09;;;;;;;2.17;1.48;;;4.80;99.90;;;;;;5022244;28;20029;-34
2023/02/03 01:59:34;;;;;;;1.30;1.30;;;4.80;99.90;;;;;;5028798;28;20387;-34
2023/02/03 02:02:02;;;;;;;2.45;1.58;;;4.80;99.90;;;;;;5025317;28;20038;-34
2023/02/03 02:04:38;;;;;;;1.57;1.47;;;4.80;99.90;;;;;;5023436;28;20732;-34
2023/02/03 02:07:05;;;;;;;2.42;1.60;;;4.90;99.90;;;;;;5022019;28;20333;-34
2023/02/03 02:09:31;;;;;;;1.50;1.40;;;4.90;99.90;;;;;;5023327;28;20033;-31
2023/02/03 02:11:57;;;;;;;1.65;1.50;;;4.90;99.90;;;;;;5026162;28;20080;-34
2023/02/03 02:14:22;;;;;;;3.72;1.77;;;4.80;99.90;;;;;;5027102;28;21507;-33
2023/02/03 02:17:02;;;;;;;1.73;1.50;;;4.80;99.90;;;;;;5023701;28;20029;-29
2023/02/03 02:19:52;;;;;;;2.83;1.67;;;4.90;99.90;;;;;;5025292;28;20029;-34
2023/02/03 02:22:40;;;;;;;1.05;1.05;;;4.90;99.90;;;;;;5027548;28;20397;-34
2023/02/03 02:25:23;;;;;;;2.47;1.55;;;4.80;99.90;;;;;;5022602;28;20033;-31
2023/02/03 02:28:14;;;;;;;2.63;1.50;;;4.90;99.90;;;;;;5030630;28;20478;-35
2023/02/03 02:31:12;;;;;;;1.50;1.40;;;4.90;99.90;;;;;;5022888;28;20025;-34
2023/02/03 02:33:46;;;;;;;1.13;1.02;;;4.90;99.90;;;;;;5021983;28;20060;-34
2023/02/03 02:36:25;;;;;;;1.38;1.30;;;4.90;99.90;;;;;;5029050;28;20401;-34
2023/02/03 02:38:58;;;;;;;2.05;1.52;;;4.80;99.90;;;;;;5025183;28;20025;-33
2023/02/03 02:41:45;;;;;;;1.80;1.60;;;4.80;99.90;;;;;;5025409;28;20111;-33
2023/02/03 02:44:17;;;;;;;1.02;1.00;;;4.80;99.90;;;;;;5024873;28;20022;-35
2023/02/03 02:46:49;;;;;;;2.47;1.77;;;4.90;99.90;;;;;;5026853;28;20041;-34
2023/02/03 02:49:41;;;;;;;1.58;1.48;;;4.80;99.90;;;;;;5023545;28;20151;-35
2023/02/03 02:52:08;;;;;;;2.15;1.77;;;4.80;99.90;;;;;;5024503;28;20036;-32
2023/02/03 02:54:39;;;;;;;1.42;1.33;;;4.80;99.90;;;;;;5024961;28;20030;-33
2023/02/03 02:57:08;;;;;;;2.53;1.42;;;4.80;99.90;;;;;;5028311;28;20045;-29
2023/02/03 02:59:34;;;;;;;1.70;1.50;;;4.80;99.90;;;;;;5025144;28;20037;-34
2023/02/03 03:01:59;;;;;;;1.60;1.50;;;4.80;99.90;;;;;;5026924;28;20615;-34
2023/02/03 03:04:28;;;;;;;2.10;1.77;;;4.80;99.90;;;;;;5020713;28;20032;-34
2023/02/03 03:07:14;;;;;;;;;;;4.80;99.90;;;;;;5027166;28;20033;-35
2023/02/03 03:09:51;;;;;;;1.52;1.42;;;4.80;99.90;;;;;;5027324;28;20362;-35
2023/02/03 03:12:21;;;;;;;1.90;1.65;;;4.90;99.90;;;;;;5025546;28;20045;-35
2023/02/03 03:14:59;;;;;;;2.25;1.58;;;4.90;99.90;;;;;;5028081;28;20044;-32
2023/02/03 03:17:30;;;;;;;1.30;1.20;;;4.80;99.90;;;;;;5026470;28;20163;-34
2023/02/03 03:19:59;;;;;;;2.60;1.30;;;4.80;99.90;;;;;;5027804;28;20468;-32
2023/02/03 03:22:29;;;;;;;1.83;1.33;;;4.90;99.90;;;;;;5025028;28;20041;-35
2023/02/03 03:25:05;;;;;;;2.08;1.88;;;4.90;99.90;;;;;;5024102;28;20032;-34
2023/02/03 03:27:36;;;;;;;3.70;1.83;;;4.90;99.90;;;;;;5013179;28;20041;-33
2023/02/03 03:30:10;;;;;;;1.30;1.27;;;4.90;99.90;;;;;;5004067;28;20560;-30
2023/02/03 03:32:36;;;;;;;1.77;1.67;;;4.90;99.90;;;;;;5000268;28;20568;-33
2023/02/03 03:35:03;;;;;;;1.55;1.45;;;4.90;99.90;;;;;;5005050;28;20071;-29
2023/02/03 03:37:35;;;;;;;1.70;1.40;;;4.90;99.90;;;;;;5002856;28;20041;-35
2023/02/03 03:40:32;;;;;;;2.10;1.50;;;4.90;99.90;;;;;;5003274;28;20033;-30
2023/02/03 03:43:02;;;;;;;1.63;1.52;;;4.80;99.90;;;;;;5005707;28;20061;-31
2023/02/03 03:45:38;;;;;;;1.67;1.58;;;4.90;99.90;;;;;;5005060;28;20045;-31
2023/02/03 03:48:06;;;;;;;3.97;1.20;;;4.90;99.90;;;;;;5004385;28;20154;-32
2023/02/03 03:50:39;;;;;;;1.17;1.13;;;4.90;99.90;;;;;;5012942;28;20061;-35
2023/02/03 03:53:08;;;;;;;1.95;1.42;;;4.90;99.90;;;;;;5029653;28;20032;-34
2023/02/03 03:55:35;;;;;;;1.65;1.55;;;4.90;99.90;;;;;;5023995;28;20025;-33
2023/02/03 03:58:06;;;;;;;1.60;1.50;;;4.90;99.90;;;;;;5030950;28;20033;-35
2023/02/03 04:00:35;;;;;;;1.75;1.52;;;5.00;99.90;;;;;;5027582;28;20580;-34
2023/02/03 04:03:14;;;;;;;1.77;1.65;;;5.00;99.90;;;;;;5026013;28;20037;-35
2023/02/03 04:05:41;;;;;;;2.47;2.00;;;5.00;99.90;;;;;;5026911;28;20069;-35
2023/02/03 04:08:07;;;;;;;3.10;1.50;;;5.00;99.90;;;;;;5024461;28;20025;-34
2023/02/03 04:10:36;;;;;;;0.93;0.93;;;5.00;99.90;;;;;;5028750;28;20471;-34
2023/02/03 04:13:05;;;;;;;1.85;1.17;;;4.90;99.90;;;;;;5027832;28;20043;-33
2023/02/03 04:15:31;;;;;;;1.42;1.33;;;4.90;99.90;;;;;;5029289;28;20429;-34
2023/02/03 04:17:56;;;;;;;2.58;1.55;;;4.90;99.90;;;;;;5027701;28;20044;-34
2023/02/03 04:20:23;;;;;;;1.77;1.10;;;5.00;99.90;;;;;;5028254;28;20037;-34
2023/02/03 04:22:49;;;;;;;1.52;1.30;;;4.90;99.90;;;;;;5023965;28;20108;-34
2023/02/03 04:25:15;;;;;;;1.38;1.27;;;5.00;99.90;;;;;;5017711;28;20037;-34
2023/02/03 04:27:40;;;;;;;0.90;0.90;;;4.90;99.90;;;;;;5027536;28;20029;-32
2023/02/03 04:30:07;;;;;;;1.20;1.10;;;4.90;99.90;;;;;;5038652;28;20033;-34
2023/02/03 04:32:34;;;;;;;1.10;1.10;;;4.90;99.90;;;;;;5020244;28;20516;-31
2023/02/03 04:35:00;;;;;;;1.23;1.13;;;4.90;99.90;;;;;;5026265;28;20075;-34
2023/02/03 04:37:26;;;;;;;1.55;1.10;;;4.90;99.90;;;;;;5025952;28;20440;-34
2023/02/03 04:39:54;;;;;;;1.60;1.30;;;4.90;99.90;;;;;;5022818;28;20144;-34
2023/02/03 04:42:20;;;;;;;1.38;1.25;;;4.90;99.90;;;;;;5026455;28;20486;-35
2023/02/03 04:44:45;;;;;;;1.98;1.30;;;4.90;99.90;;;;;;5027536;28;20087;-34
2023/02/03 04:47:11;;;;;;;1.20;1.10;;;4.90;99.90;;;;;;5027873;28;20506;-34
2023/02/03 04:49:36;;;;;;;1.75;1.60;;;4.90;99.90;;;;;;5026075;28;20022;-34
2023/02/03 04:52:02;;;;;;;1.60;1.08;;;4.90;99.90;;;;;;5024134;28;20080;-29
2023/02/03 04:54:28;;;;;;;3.05;1.42;;;4.90;99.90;;;;;;5024349;28;20436;-35
2023/02/03 04:56:53;;;;;;;1.55;1.45;;;4.80;99.90;;;;;;5012497;28;20183;-32
2023/02/03 04:59:19;;;;;;;1.08;1.08;;;4.80;99.90;;;;;;5000219;28;20022;-34
2023/02/03 05:01:44;;;;;;;1.38;1.30;;;4.80;99.90;;;;;;5010902;28;20038;-34
2023/02/03 05:04:10;;;;;;;3.40;1.58;;;4.90;99.90;;;;;;5021604;28;20029;-35
2023/02/03 05:06:35;;;;;;;1.80;1.27;;;4.90;99.90;;;;;;5027667;28;20128;-32
2023/02/03 05:09:01;;;;;;;2.25;1.52;;;4.90;99.90;;;;;;5027989;28;20509;-34
2023/02/03 05:11:27;;;;;;;1.65;1.55;;;4.80;99.90;;;;;;5030396;28;20401;-33
2023/02/03 05:13:53;;;;;;;1.30;1.30;;;4.90;99.90;;;;;;5011006;28;20043;-34
2023/02/03 05:16:19;;;;;;;1.58;1.48;;;4.90;99.90;;;;;;5004595;28;20029;-31
2023/02/03 05:18:44;;;;;;;2.25;1.40;;;4.90;99.90;;;;;;5003403;28;20647;-32
2023/02/03 05:21:10;;;;;;;2.30;1.10;;;4.90;99.90;;;;;;5014072;28;20751;-34
2023/02/03 05:23:36;;;;;;;1.10;1.10;;;4.80;99.90;;;;;;5008321;28;20389;-32
2023/02/03 05:26:01;;;;;;;1.85;1.10;;;4.80;99.90;;;;;;5003381;28;20029;-30
2023/02/03 05:28:27;;;;;;;2.25;1.38;;;4.80;99.90;;;;;;5008123;28;20458;-34
2023/02/03 05:30:53;;;;;;;1.17;1.17;;;4.80;99.90;;;;;;5028992;28;20490;-34
2023/02/03 05:33:18;;;;;;;3.45;1.70;;;4.80;99.90;;;;;;5027140;28;20034;-32
2023/02/03 05:35:44;;;;;;;1.10;1.10;;;4.80;99.90;;;;;;5030843;28;20029;-32
2023/02/03 05:38:09;;;;;;;1.50;1.30;;;4.80;99.90;;;;;;5029345;28;20048;-33
2023/02/03 05:43:19;;;;;;;1.30;1.20;;;4.80;99.90;;;;;;5022903;28;20758;-33
2023/02/03 05:45:45;;;;;;;1.30;1.30;;;4.80;99.90;;;;;;5024906;28;20522;-34
2023/02/03 05:48:11;;;;;;;1.80;1.65;;;4.90;99.90;;;;;;5026701;28;20052;-32
2023/02/03 05:50:37;;;;;;;2.10;1.20;;;4.80;99.90;;;;;;5026980;28;20032;-34
2023/02/03 05:53:04;;;;;;;1.33;1.33;;;4.80;99.90;;;;;;5030148;28;20075;-34
2023/02/03 05:55:31;;;;;;;1.30;1.30;;;4.80;99.90;;;;;;5021301;28;20037;-33
2023/02/03 05:57:57;;;;;;;1.27;0.98;;;4.90;99.90;;;;;;5032951;28;20025;-34
2023/02/03 06:00:23;;;;;;;1.40;1.30;;;4.80;99.90;;;;;;5024549;28;20159;-35
2023/02/03 06:02:52;;;;;;;1.00;1.00;;;4.80;99.90;;;;;;5023587;28;20033;-34
2023/02/03 06:05:18;;;;;;;1.58;1.45;;;4.80;99.90;;;;;;5026971;28;20034;-30
2023/02/03 06:07:43;;;;;;;1.90;1.20;;;4.80;99.90;;;;;;5027804;28;20918;-35
2023/02/03 06:10:09;;;;;;;2.90;1.60;;;4.90;99.90;;;;;;5028291;28;20079;-35
2023/02/03 06:12:36;;;;;;;1.80;1.70;;;4.80;99.90;;;;;;5030478;28;20034;-34
2023/02/03 06:15:02;;;;;;;2.35;1.88;;;4.80;99.90;;;;;;5030359;28;20056;-33
2023/02/03 06:17:28;;;;;;;1.00;1.00;;;4.90;99.90;;;;;;5027740;28;20030;-34
2023/02/03 06:19:53;;;;;;;1.20;1.17;;;4.80;99.90;;;;;;5031103;28;20520;-33
2023/02/03 06:22:19;;;;;;;1.30;1.20;;;4.70;99.90;;;;;;5029903;28;20071;-33
2023/02/03 06:24:46;;;;;;;1.27;1.27;;;4.70;99.90;;;;;;5024566;28;20087;-34
2023/02/03 06:27:13;;;;;;;1.60;1.50;;;4.70;99.90;;;;;;5029720;28;20461;-32
2023/02/03 06:29:38;;;;;;;1.20;1.20;;;4.70;99.90;;;;;;5026471;28;20040;-34
2023/02/03 06:32:04;;;;;;;1.92;1.73;;;4.70;99.90;;;;;;5025559;28;20391;-34
2023/02/03 06:34:30;;;;;;;1.20;1.10;;;4.70;99.90;;;;;;5026218;28;20463;-33
2023/02/03 06:36:55;;;;;;;1.75;1.65;;;4.70;99.90;;;;;;5028544;28;20034;-34
2023/02/03 06:39:21;;;;;;;2.03;1.67;;;4.60;99.90;;;;;;5023500;28;20088;-34
2023/02/03 06:41:46;;;;;;;2.00;1.48;;;4.70;99.90;;;;;;5030553;28;20037;-33
2023/02/03 06:44:12;;;;;;;1.80;1.50;;;4.70;99.90;;;;;;5025606;28;20382;-31
2023/02/03 06:46:37;;;;;;;2.25;1.20;;;4.60;99.90;;;;;;5030693;28;20061;-34
2023/02/03 06:49:03;;;;;;;1.35;1.02;;;4.70;99.90;;;;;;5022759;28;20486;-35
2023/02/03 06:51:28;;;;;;;5.63;1.83;;;4.70;99.90;;;;;;5029884;28;20878;-34
2023/02/03 06:53:54;;;;;;;1.40;1.30;;;4.60;99.90;;;;;;5025614;28;20256;-34
2023/02/03 06:56:19;;;;;;;1.17;1.10;;;4.70;99.90;;;;;;5026258;28;20079;-30
2023/02/03 06:58:45;;;;;;;1.67;1.58;;;4.60;99.90;;;;;;5009391;28;20452;-31
2023/02/03 07:01:11;;;;;;;3.95;1.52;;;4.70;99.90;;;;;;5005613;28;20532;-34
2023/02/03 07:03:36;;;;;;;2.03;1.50;;;4.70;99.90;;;;;;5006859;28;22027;-33
2023/02/03 07:06:02;;;;;;;1.42;1.33;;;4.70;99.90;;;;;;5011545;28;20115;-34
2023/02/03 07:08:27;;;;;;;1.13;1.05;;;4.70;99.90;;;;;;5010764;28;20059;-34
2023/02/03 07:10:54;;;;;;;3.53;1.70;;;4.60;99.90;;;;;;5031853;28;20482;-34
2023/02/03 07:13:19;;;;;;;4.65;1.52;;;4.70;99.90;;;;;;5029208;28;20026;-34
2023/02/03 07:15:45;;;;;;;2.10;1.88;;;4.70;99.90;;;;;;5031107;28;20060;-33
2023/02/03 07:18:10;;;;;;;1.40;1.40;;;4.70;99.90;;;;;;5027578;28;20037;-34
2023/02/03 07:20:36;;;;;;;2.17;1.63;;;4.70;99.90;;;;;;5029585;28;20132;-34
2023/02/03 07:23:01;;;;;;;2.13;1.50;;;4.70;99.90;;;;;;5026138;28;20030;-34
2023/02/03 07:25:27;;;;;;;1.65;1.30;;;4.70;99.90;;;;;;5030275;28;20460;-34
2023/02/03 07:27:53;;;;;;;1.52;1.40;;;4.70;99.90;;;;;;5028316;28;20033;-35
2023/02/03 07:30:19;;;;;;;1.10;1.10;;;4.70;99.90;;;;;;5029505;28;20096;-30
2023/02/03 07:32:49;;;;;;;1.50;1.40;;;4.70;99.90;;;;;;5026616;28;20394;-35
2023/02/03 07:35:16;;;;;;;1.55;1.45;;;4.80;99.90;;;;;;5029453;28;20025;-34
2023/02/03 07:37:42;;;;;;;1.30;1.20;;;4.80;99.90;;;;;;5025379;28;20029;-32
2023/02/03 07:40:09;;;;;;;1.55;1.42;;;4.80;99.90;;;;;;5018771;28;20034;-34
2023/02/03 07:42:34;;;;;;;1.30;1.20;;;4.80;99.90;;;;;;5026562;28;20489;-35
2023/02/03 07:45:00;;;;;;;3.25;1.20;;;4.80;99.90;;;;;;5025189;28;20088;-32
2023/02/03 07:47:25;;;;;;;1.50;1.15;;;4.90;99.90;;;;;;5026713;28;20573;-35
2023/02/03 07:49:51;;;;;;;1.13;1.02;;;4.90;99.90;;;;;;5023216;28;20505;-34
2023/02/03 07:52:16;;;;;;;1.83;1.73;;;4.90;99.90;;;;;;5019753;28;20029;-34
2023/02/03 07:54:42;;;;;;;2.00;1.27;;;5.00;99.90;;;;;;5023649;28;20033;-32
2023/02/03 07:57:07;;;;;;;1.88;1.20;;;5.00;99.90;;;;;;5028105;28;20033;-35
2023/02/03 07:59:33;;;;;;;1.50;1.40;;;5.00;99.90;;;;;;5024264;28;20168;-33
2023/02/03 08:01:58;;;;;;;2.05;1.42;;;5.10;99.90;;;;;;5025577;28;20041;-35
2023/02/03 08:04:24;;;;;;;3.17;1.40;;;5.10;99.90;;;;;;5026553;28;20132;-35
2023/02/03 08:06:50;;;;;;;2.45;1.40;;;5.20;99.90;;;;;;5024078;28;20139;-35
2023/02/03 08:09:15;;;;;;;1.30;1.20;;;5.20;99.90;;;;;;5025411;28;20072;-35
2023/02/03 08:11:41;;;;;;;2.05;1.50;;;5.20;99.90;;;;;;5028264;28;20104;-35
2023/02/03 08:14:06;;;;;;;1.23;1.20;;;5.20;99.90;;;;;;5029109;28;20112;-35
2023/02/03 08:16:32;;;;;;;2.00;1.15;;;5.20;99.90;;;;;;5025532;28;20055;-35
2023/02/03 08:18:58;;;;;;;1.20;1.20;;;5.20;99.90;;;;;;5029461;28;20108;-35
2023/02/03 08:21:23;;;;;;;1.58;1.35;;;5.20;99.90;;;;;;5026114;28;20534;-32
2023/02/03 08:23:49;;;;;;;1.58;1.48;;;5.20;99.90;;;;;;5021985;28;20083;-34
2023/02/03 08:26:14;;;;;;;2.47;1.23;;;5.30;99.90;;;;;;5028900;28;20120;-35
2023/02/03 08:28:40;;;;;;;1.52;1.42;;;5.30;99.90;;;;;;5027976;28;20033;-34
2023/02/03 08:31:12;;;;;;;1.30;1.30;;;5.30;99.90;;;;;;5029657;28;20033;-35
2023/02/03 08:33:37;;;;;;;1.50;1.10;;;5.30;99.90;;;;;;5024494;28;20052;-35
2023/02/03 08:36:04;;;;;;;1.25;1.25;;;5.30;99.90;;;;;;5029893;28;20029;-33
2023/02/03 08:38:30;;;;;;;1.35;1.25;;;5.40;99.90;;;;;;5025622;28;20025;-34
2023/02/03 08:40:56;;;;;;;1.17;1.10;;;5.50;99.90;;;;;;5030622;28;20394;-35
2023/02/03 08:43:21;;;;;;;3.20;1.30;;;5.50;99.90;;;;;;5027362;28;20036;-34
2023/02/03 08:45:47;;;;;;;3.03;1.30;;;5.50;99.90;;;;;;5028691;28;20033;-34
2023/02/03 08:48:13;;;;;;;1.48;1.38;;;5.50;99.90;;;;;;5027097;28;20053;-31
2023/02/03 08:50:41;;;;;;;1.25;1.15;;;5.60;99.90;;;;;;5027925;28;20034;-35
2023/02/03 08:53:07;;;;;;;0.82;0.82;;;5.60;99.90;;;;;;5026359;28;20092;-33
2023/02/03 08:55:33;;;;;;;1.55;1.30;;;5.60;99.90;;;;;;5024341;28;20030;-30
2023/02/03 08:57:59;;;;;;;1.02;0.98;;;5.60;99.90;;;;;;5028760;28;20033;-35
2023/02/03 09:00:25;;;;;;;2.75;1.40;;;5.60;99.90;;;;;;5022665;28;20035;-33
2023/02/03 09:02:51;;;;;;;1.50;1.40;;;5.60;99.90;;;;;;5026104;28;20429;-35
2023/02/03 09:05:17;;;;;;;1.85;1.63;;;5.70;99.90;;;;;;5026946;28;20394;-35
2023/02/03 09:07:43;;;;;;;1.40;1.30;;;5.70;99.90;;;;;;5028310;28;20032;-33
2023/02/03 09:10:09;;;;;;;1.92;1.52;;;5.70;99.90;;;;;;5024669;28;20025;-34
2023/02/03 09:12:35;;;;;;;1.35;1.25;;;5.70;99.90;;;;;;5026656;28;20017;-34
2023/02/03 09:15:00;;;;;;;1.52;1.33;;;5.70;99.90;;;;;;5027500;28;20088;-35
2023/02/03 09:17:26;;;;;;;1.42;1.27;;;5.80;99.90;;;;;;5029540;28;20111;-34
2023/02/03 09:19:52;;;;;;;1.75;1.38;;;5.80;99.90;;;;;;5023694;28;20498;-33
2023/02/03 09:22:18;;;;;;;1.73;1.40;;;5.80;99.90;;;;;;5022764;28;20084;-35
2023/02/03 09:24:43;;;;;;;1.50;1.40;;;5.80;99.90;;;;;;5027997;28;20124;-32
2023/02/03 09:27:09;;;;;;;1.95;1.58;;;5.80;99.90;;;;;;5029341;28;20039;-35
2023/02/03 09:29:35;;;;;;;1.60;1.50;;;5.80;99.90;;;;;;5025724;28;20429;-35
2023/02/03 09:32:05;;;;;;;1.20;1.10;;;5.90;99.90;;;;;;5028245;28;20041;-35
2023/02/03 09:34:31;;;;;;;1.20;1.15;;;5.90;99.90;;;;;;5022674;28;20084;-35
2023/02/03 09:36:56;;;;;;;1.40;1.30;;;5.90;99.90;;;;;;5028029;28;20093;-35
2023/02/03 09:39:22;;;;;;;2.60;1.42;;;5.90;99.90;;;;;;5024882;28;20037;-33
2023/02/03 09:42:15;;;;;;;1.67;1.58;;;5.90;99.90;;;;;;5027194;28;20060;-35
2023/02/03 09:44:53;;;;;;;2.25;1.42;;;5.90;99.90;;;;;;5022147;28;20112;-31
2023/02/03 09:47:27;;;;;;;3.58;1.60;;;5.90;99.90;;;;;;5028674;28;20068;-34
2023/02/03 09:49:59;;;;;;;1.55;1.45;;;6.00;99.90;;;;;;5019868;28;20026;-34
2023/02/03 09:52:26;;;;;;;6.88;1.25;;;6.00;99.90;;;;;;5024574;28;20386;-35
2023/02/03 09:55:06;;;;;;;2.53;1.42;;;6.00;99.90;;;;;;5027598;28;20032;-35
2023/02/03 09:58:05;;;;;;;3.35;1.52;;;6.00;99.90;;;;;;5025009;28;20393;-33
2023/02/03 10:00:42;;;;;;;1.08;1.08;;;5.90;99.90;;;;;;5029607;28;20033;-34
2023/02/03 10:03:27;;;;;;;1.67;1.40;;;5.90;99.90;;;;;;5023248;28;20068;-36
2023/02/03 10:06:22;;;;;;;1.35;1.23;;;5.90;99.90;;;;;;5032559;28;20605;-35
2023/02/03 10:09:06;;;;;;;3.33;1.52;;;6.00;99.90;;;;;;5029214;28;20490;-34
2023/02/03 10:11:48;;;;;;;1.45;1.23;;;6.00;99.90;;;;;;5031446;28;20025;-33
2023/02/03 10:14:17;;;;;;;1.50;1.40;;;6.00;99.90;;;;;;5026756;28;20034;-35
2023/02/03 10:17:09;;;;;;;2.25;1.63;;;6.00;99.90;;;;;;5029135;28;20051;-28
2023/02/03 10:19:43;;;;;;;1.45;1.38;;;6.00;99.90;;;;;;5026163;28;20547;-31
2023/02/03 10:22:18;;;;;;;1.50;1.40;;;6.00;99.90;;;;;;5029915;28;20425;-35
2023/02/03 10:24:53;;;;;;;1.42;1.33;;;6.00;99.90;;;;;;5039997;28;20044;-35
2023/02/03 10:27:21;;;;;;;3.70;1.90;;;6.00;99.90;;;;;;5027533;28;20040;-35
2023/02/03 10:30:05;;;;;;;1.65;1.58;;;6.10;99.90;;;;;;5030255;28;20030;-35
2023/02/03 10:32:32;;;;;;;1.30;1.30;;;6.10;99.90;;;;;;5029606;28;20371;-35
2023/02/03 10:35:00;;;;;;;1.70;1.60;;;6.10;99.90;;;;;;5031072;28;20075;-34
2023/02/03 10:37:30;;;;;;;1.45;1.27;;;6.20;99.90;;;;;;5031449;28;20033;-33
2023/02/03 10:39:58;;;;;;;1.63;1.52;;;6.20;99.90;;;;;;5027696;28;20034;-34
2023/02/03 10:42:24;;;;;;;1.63;1.35;;;6.20;99.90;;;;;;5029534;28;20034;-35
2023/02/03 10:45:00;;;;;;;1.20;1.10;;;6.20;99.90;;;;;;5029185;28;20060;-34
2023/02/03 10:47:40;;;;;;;2.55;1.50;;;6.20;99.90;;;;;;5028350;28;20037;-34
2023/02/03 10:50:19;;;;;;;4.20;1.60;;;6.10;99.90;;;;;;5030644;28;20037;-35
2023/02/03 10:52:45;;;;;;;1.48;1.45;;;6.10;99.90;;;;;;5031870;28;20029;-35
2023/02/03 10:55:23;;;;;;;1.52;1.42;;;6.10;99.90;;;;;;5031188;28;20525;-34
2023/02/03 10:57:48;;;;;;;1.65;1.55;;;6.00;99.90;;;;;;5032322;28;20052;-33
2023/02/03 11:00:30;;;;;;;2.65;1.65;;;6.00;99.90;;;;;;5028367;28;20029;-33
2023/02/03 11:03:19;;;;;;;1.00;1.00;;;6.10;99.90;;;;;;5030993;28;20041;-33
2023/02/03 11:05:45;;;;;;;1.63;1.38;;;6.10;99.90;;;;;;5026909;28;20045;-36
2023/02/03 11:08:15;;;;;;;2.33;1.50;;;6.10;99.90;;;;;;5030340;28;20018;-30
2023/02/03 11:10:42;;;;;;;2.30;1.60;;;6.10;99.90;;;;;;5029860;28;20067;-33
2023/02/03 11:13:25;;;;;;;1.50;1.40;;;6.20;99.90;;;;;;5030510;28;20032;-32
2023/02/03 11:16:01;;;;;;;1.13;1.13;;;6.20;99.90;;;;;;5029291;28;20079;-35
2023/02/03 11:18:54;;;;;;;0.95;0.93;;;6.20;99.90;;;;;;5026283;28;20466;-30
2023/02/03 11:21:45;;;;;;;1.38;1.30;;;6.20;99.90;;;;;;5024976;28;20037;-35
2023/02/03 11:24:17;;;;;;;2.03;1.23;;;6.20;99.90;;;;;;5028386;28;20079;-34
2023/02/03 11:26:50;;;;;;;1.80;1.13;;;6.20;99.90;;;;;;5029142;28;20087;-30
2023/02/03 11:29:27;;;;;;;1.40;1.30;;;6.40;99.90;;;;;;5027732;28;20497;-35
2023/02/03 11:31:54;;;;;;;2.33;1.17;;;6.40;99.90;;;;;;5026079;28;20519;-30
2023/02/03 11:34:28;;;;;;;1.35;1.27;;;6.50;99.90;;;;;;5027149;28;20032;-35
2023/02/03 11:36:55;;;;;;;1.40;1.30;;;6.60;99.90;;;;;;5030533;28;20402;-35
2023/02/03 11:39:24;;;;;;;2.40;1.40;;;6.60;99.90;;;;;;5027656;28;20057;-35
2023/02/03 11:41:50;;;;;;;1.33;1.23;;;6.60;99.90;;;;;;5028587;28;20026;-35
2023/02/03 11:44:20;;;;;;;1.30;1.30;;;6.70;99.90;;;;;;5026747;28;20693;-35
2023/02/03 11:46:49;;;;;;;1.58;1.10;;;6.60;99.90;;;;;;5026598;28;20045;-35
2023/02/03 11:49:37;;;;;;;1.08;1.08;;;6.70;99.90;;;;;;5026548;28;20033;-34
2023/02/03 11:52:29;;;;;;;1.08;1.00;;;6.80;99.90;;;;;;5028998;28;20552;-35
2023/02/03 11:55:11;;;;;;;1.33;1.27;;;6.80;99.90;;;;;;5023344;28;20026;-35
2023/02/03 11:57:58;;;;;;;1.38;1.27;;;6.80;99.90;;;;;;5026390;28;20441;-34
2023/02/03 12:00:39;;;;;;;1.35;1.05;;;6.80;99.90;;;;;;5023265;28;20030;-36
2023/02/03 12:03:26;;;;;;;2.00;1.10;;;6.80;99.90;;;;;;5025407;28;20046;-35
2023/02/03 12:06:01;;;;;;;2.78;1.27;;;6.80;99.90;;;;;;5026105;28;20033;-35
2023/02/03 12:08:47;;;;;;;1.75;1.50;;;6.80;99.90;;;;;;5026737;28;20040;-35
2023/02/03 12:11:36;;;;;;;2.30;1.10;;;6.70;99.90;;;;;;5029496;28;20026;-33
2023/02/03 12:14:48;;;;;;;1.30;1.20;;;6.80;99.90;;;;;;5029140;28;20470;-35
2023/02/03 12:17:47;;;;;;;1.42;1.30;;;6.80;99.90;;;;;;5026989;28;20088;-35
2023/02/03 12:20:22;;;;;;;1.80;1.40;;;6.80;99.90;;;;;;5026393;28;20029;-34
2023/02/03 12:23:10;;;;;;;1.58;0.80;;;6.80;99.90;;;;;;5030720;28;20064;-34
2023/02/03 12:26:07;;;;;;;2.80;1.13;;;6.90;99.90;;;;;;5026322;28;20831;-35
2023/02/03 12:28:59;;;;;;;1.58;1.40;;;6.90;99.90;;;;;;5026560;28;20069;-33
2023/02/03 12:31:38;;;;;;;1.42;1.33;;;6.90;99.90;;;;;;5028561;28;20040;-35
2023/02/03 12:34:14;;;;;;;2.13;1.17;;;6.90;99.90;;;;;;5028722;28;20064;-35
2023/02/03 12:36:43;;;;;;;0.95;0.95;;;6.90;99.90;;;;;;5020390;28;20144;-34
2023/02/03 12:39:23;;;;;;;1.20;1.10;;;7.00;99.90;;;;;;5023109;28;20032;-34
2023/02/03 12:42:06;;;;;;;1.38;1.20;;;7.00;99.90;;;;;;5029824;28;20026;-35
2023/02/03 12:44:42;;;;;;;1.25;1.15;;;7.00;99.90;;;;;;5026345;28;20030;-34
2023/02/03 12:47:38;;;;;;;1.67;1.23;;;7.10;99.90;;;;;;5029574;28;20041;-33
2023/02/03 12:50:53;;;;;;;1.50;1.20;;;7.10;99.90;;;;;;5027136;28;20056;-35
2023/02/03 12:53:29;;;;;;;1.30;1.20;;;7.10;99.90;;;;;;5026828;28;20036;-34
2023/02/03 12:56:04;;;;;;;1.25;1.20;;;7.10;99.90;;;;;;5030654;28;20075;-35
2023/02/03 12:59:04;;;;;;;1.08;1.00;;;7.00;99.90;;;;;;5025962;28;20037;-33
2023/02/03 13:01:54;;;;;;;1.00;1.00;;;7.00;99.90;;;;;;5025412;28;20060;-35
2023/02/03 13:04:33;;;;;;;1.35;1.20;;;7.00;99.90;;;;;;5029757;28;20041;-34
2023/02/03 13:07:23;;;;;;;1.95;1.27;;;7.00;99.90;;;;;;5029290;28;20038;-33
2023/02/03 13:09:54;;;;;;;1.35;1.08;;;7.00;99.90;;;;;;5025030;28;20038;-32
2023/02/03 13:12:40;;;;;;;1.50;1.10;;;7.00;99.90;;;;;;5030977;28;20525;-34
2023/02/03 13:15:24;;;;;;;1.63;1.40;;;7.00;99.90;;;;;;5025513;28;20060;-33
2023/02/03 13:18:14;;;;;;;1.20;0.95;;;7.10;99.90;;;;;;5029250;28;20029;-35
2023/02/03 13:20:40;;;;;;;2.95;1.15;;;7.10;99.90;;;;;;5029514;28;20502;-35